createdAt,value
2022-10-27T00:00:12.786Z,1.80
2022-10-27T00:02:39.800Z,1.92
2022-10-27T00:05:06.534Z,2.05
2022-10-27T00:07:35.653Z,1.73
2022-10-27T00:10:02.186Z,1.83
2022-10-27T00:12:30.659Z,1.38
2022-10-27T00:14:57.219Z,1.70
2022-10-27T00:17:23.892Z,1.90
2022-10-27T00:19:50.520Z,2.00
2022-10-27T00:22:17.127Z,1.95
2022-10-27T00:24:43.808Z,1.60
2022-10-27T00:27:10.349Z,1.58
2022-10-27T00:29:36.909Z,2.00
2022-10-27T00:32:03.547Z,1.80
2022-10-27T00:34:30.352Z,1.73
2022-10-27T00:36:56.896Z,1.40
2022-10-27T00:39:23.479Z,1.90
2022-10-27T00:41:50.157Z,1.60
2022-10-27T00:44:36.457Z,1.88
2022-10-27T00:47:25.559Z,1.80
2022-10-27T00:50:15.496Z,1.45
2022-10-27T00:53:00.264Z,1.50
2022-10-27T00:55:30.848Z,1.50
2022-10-27T00:57:58.112Z,1.70
2022-10-27T01:00:24.938Z,1.60
2022-10-27T01:02:51.868Z,1.33
2022-10-27T01:05:20.375Z,1.48
2022-10-27T01:07:47.621Z,1.40
2022-10-27T01:10:14.495Z,1.50
2022-10-27T01:12:41.241Z,1.60
2022-10-27T01:15:08.521Z,1.65
2022-10-27T01:17:41.124Z,1.40
2022-10-27T01:20:22.529Z,1.70
2022-10-27T01:23:26.635Z,1.67
2022-10-27T01:26:08.240Z,1.13
2022-10-27T01:29:05.294Z,1.20
2022-10-27T01:31:58.258Z,1.30
2022-10-27T01:34:36.462Z,1.15
2022-10-27T01:37:15.738Z,1.38
2022-10-27T01:40:04.351Z,1.25
2022-10-27T01:43:04.528Z,1.38
2022-10-27T01:45:32.682Z,1.20
2022-10-27T01:47:59.403Z,1.35
2022-10-27T01:51:00.563Z,1.30
2022-10-27T01:53:29.563Z,1.33
2022-10-27T01:56:02.307Z,1.25
2022-10-27T01:58:52.990Z,1.40
2022-10-27T02:01:32.669Z,1.40
2022-10-27T02:04:35.063Z,1.40
2022-10-27T02:07:30.073Z,1.20
2022-10-27T02:10:19.772Z,1.13
2022-10-27T02:12:46.390Z,1.23
2022-10-27T02:15:32.559Z,1.50
2022-10-27T02:18:15.549Z,1.00
2022-10-27T02:20:44.204Z,1.40
2022-10-27T02:23:14.186Z,1.20
2022-10-27T02:25:50.639Z,1.40
2022-10-27T02:28:17.888Z,1.52
2022-10-27T02:30:44.550Z,1.55
2022-10-27T02:33:11.241Z,1.42
2022-10-27T02:35:37.879Z,2.00
2022-10-27T02:38:04.349Z,1.30
2022-10-27T02:40:30.984Z,1.30
2022-10-27T02:42:57.607Z,1.50
2022-10-27T02:45:24.195Z,1.08
2022-10-27T02:47:50.691Z,0.93
2022-10-27T02:50:17.366Z,1.42
2022-10-27T02:52:44.152Z,1.20
2022-10-27T02:55:10.821Z,1.45
2022-10-27T02:57:37.384Z,1.50
2022-10-27T03:00:05.382Z,1.17
2022-10-27T03:02:32.159Z,1.35
2022-10-27T03:04:58.650Z,1.23
2022-10-27T03:07:25.170Z,1.50
2022-10-27T03:09:51.783Z,1.00
2022-10-27T03:12:18.434Z,1.90
2022-10-27T03:14:45.141Z,1.55
2022-10-27T03:17:11.995Z,1.70
2022-10-27T03:19:38.651Z,1.40
2022-10-27T03:22:05.329Z,1.33
2022-10-27T03:24:31.953Z,1.50
2022-10-27T03:26:58.614Z,1.80
2022-10-27T03:29:25.184Z,1.50
2022-10-27T03:31:51.839Z,1.58
2022-10-27T03:34:20.289Z,1.60
2022-10-27T03:36:48.113Z,1.75
2022-10-27T03:39:14.891Z,1.67
2022-10-27T03:41:41.524Z,1.58
2022-10-27T03:44:08.051Z,1.60
2022-10-27T03:46:34.664Z,1.38
2022-10-27T03:49:01.261Z,1.70
2022-10-27T03:51:27.956Z,1.60
2022-10-27T03:53:56.235Z,1.42
2022-10-27T03:56:22.852Z,1.52
2022-10-27T03:58:49.506Z,1.80
2022-10-27T04:01:16.270Z,1.60
2022-10-27T04:03:42.886Z,1.40
2022-10-27T04:06:09.456Z,1.50
2022-10-27T04:08:36.069Z,1.77
2022-10-27T04:11:02.691Z,1.83
2022-10-27T04:13:30.794Z,1.60
2022-10-27T04:16:01.113Z,1.80
2022-10-27T04:18:27.623Z,1.70
2022-10-27T04:20:54.169Z,1.30
2022-10-27T04:23:20.757Z,1.35
2022-10-27T04:25:47.376Z,1.60
2022-10-27T04:28:14.102Z,1.50
2022-10-27T04:30:40.795Z,1.88
2022-10-27T04:33:07.471Z,1.50
2022-10-27T04:38:05.553Z,1.60
2022-10-27T04:40:32.122Z,1.50
2022-10-27T04:42:58.793Z,1.60
2022-10-27T04:45:25.986Z,1.70
2022-10-27T04:47:52.796Z,1.40
2022-10-27T04:50:19.654Z,1.45
2022-10-27T04:52:56.686Z,1.50
2022-10-27T04:55:23.909Z,1.60
2022-10-27T04:57:50.460Z,1.30
2022-10-27T05:00:18.019Z,1.13
2022-10-27T05:02:45.044Z,1.63
2022-10-27T05:05:11.675Z,1.70
2022-10-27T05:07:38.311Z,1.38
2022-10-27T05:10:05.277Z,1.45
2022-10-27T05:12:31.903Z,1.35
2022-10-27T05:14:58.602Z,1.30
2022-10-27T05:17:25.313Z,1.33
2022-10-27T05:19:52.031Z,1.05
2022-10-27T05:22:18.746Z,1.70
2022-10-27T05:24:45.405Z,1.65
2022-10-27T05:27:11.967Z,1.48
2022-10-27T05:29:38.650Z,1.20
2022-10-27T05:32:05.233Z,1.33
2022-10-27T05:34:31.836Z,1.40
2022-10-27T05:36:58.362Z,1.45
2022-10-27T05:39:25.872Z,1.50
2022-10-27T05:41:52.529Z,1.35
2022-10-27T05:44:19.253Z,1.17
2022-10-27T05:46:46.385Z,1.48
2022-10-27T05:49:13.054Z,1.67
2022-10-27T05:51:40.699Z,1.55
2022-10-27T05:54:07.191Z,1.48
2022-10-27T05:56:33.718Z,1.80
2022-10-27T05:59:00.293Z,2.08
2022-10-27T06:01:27.040Z,1.50
2022-10-27T06:03:53.642Z,1.48
2022-10-27T06:06:20.283Z,1.30
2022-10-27T06:08:46.825Z,1.60
2022-10-27T06:11:13.353Z,1.67
2022-10-27T06:13:40.060Z,1.40
2022-10-27T06:16:08.320Z,1.25
2022-10-27T06:18:37.345Z,1.48
2022-10-27T06:21:03.993Z,1.80
2022-10-27T06:23:30.537Z,1.58
2022-10-27T06:25:57.118Z,1.50
2022-10-27T06:28:23.657Z,1.60
2022-10-27T06:30:50.275Z,1.42
2022-10-27T06:33:16.776Z,1.58
2022-10-27T06:35:45.423Z,1.40
2022-10-27T06:38:12.008Z,1.33
2022-10-27T06:40:38.558Z,1.48
2022-10-27T06:43:08.785Z,1.40
2022-10-27T06:45:35.873Z,1.38
2022-10-27T06:48:02.492Z,1.45
2022-10-27T06:50:29.341Z,1.70
2022-10-27T06:52:56.732Z,1.50
2022-10-27T06:55:23.345Z,1.98
2022-10-27T06:57:50.247Z,2.20
2022-10-27T07:00:17.789Z,2.03
2022-10-27T07:02:44.529Z,2.03
2022-10-27T07:05:11.152Z,3.17
2022-10-27T07:07:37.834Z,4.20
2022-10-27T07:10:05.802Z,3.83
2022-10-27T07:12:32.543Z,4.05
2022-10-27T07:14:59.109Z,3.95
2022-10-27T07:17:25.637Z,3.95
2022-10-27T07:19:52.173Z,3.78
2022-10-27T07:22:19.033Z,3.25
2022-10-27T07:24:45.537Z,3.20
2022-10-27T07:27:12.237Z,2.95
2022-10-27T07:29:38.712Z,2.30
2022-10-27T07:32:05.370Z,1.88
2022-10-27T07:34:32.037Z,1.80
2022-10-27T07:37:09.101Z,1.75
2022-10-27T07:39:43.381Z,1.60
2022-10-27T07:45:04.767Z,2.00
2022-10-27T07:47:31.583Z,1.85
2022-10-27T07:49:58.350Z,1.83
2022-10-27T07:52:24.989Z,2.22
2022-10-27T07:54:51.589Z,2.00
2022-10-27T07:57:18.690Z,2.03
2022-10-27T07:59:45.637Z,2.28
2022-10-27T08:02:12.244Z,2.70
2022-10-27T08:04:38.921Z,3.30
2022-10-27T08:07:05.591Z,2.47
2022-10-27T08:09:32.303Z,2.40
2022-10-27T08:11:59.607Z,2.20
2022-10-27T08:14:26.120Z,1.60
2022-10-27T08:16:52.699Z,1.73
2022-10-27T08:19:19.344Z,1.98
2022-10-27T08:21:45.958Z,1.70
2022-10-27T08:26:39.230Z,2.70
2022-10-27T08:29:06.122Z,2.40
2022-10-27T08:31:32.722Z,2.78
2022-10-27T08:34:00.189Z,2.67
2022-10-27T08:36:27.136Z,3.05
2022-10-27T08:38:53.893Z,2.50
2022-10-27T08:41:34.691Z,1.92
2022-10-27T08:44:22.656Z,2.63
2022-10-27T08:46:51.663Z,2.58
2022-10-27T08:49:26.162Z,2.45
2022-10-27T08:51:52.726Z,2.38
2022-10-27T08:54:19.856Z,2.55
2022-10-27T08:56:46.768Z,2.70
2022-10-27T08:59:18.651Z,2.00
2022-10-27T09:02:13.341Z,2.17
2022-10-27T09:05:15.046Z,2.53
2022-10-27T09:08:06.141Z,2.88
2022-10-27T09:11:12.148Z,2.42
2022-10-27T09:14:08.040Z,2.20
2022-10-27T09:16:43.484Z,1.52
2022-10-27T09:19:13.959Z,2.15
2022-10-27T09:21:41.500Z,1.98
2022-10-27T09:24:14.227Z,2.42
2022-10-27T09:26:41.425Z,2.33
2022-10-27T09:29:28.820Z,2.00
2022-10-27T09:32:13.593Z,2.20
2022-10-27T09:34:40.852Z,2.60
2022-10-27T09:37:14.930Z,2.10
2022-10-27T09:39:43.770Z,1.88
2022-10-27T09:42:10.569Z,2.03
2022-10-27T09:44:37.283Z,2.40
2022-10-27T09:47:04.069Z,3.03
2022-10-27T09:49:38.395Z,3.40
2022-10-27T09:52:12.524Z,2.85
2022-10-27T09:54:40.202Z,2.38
2022-10-27T09:57:10.910Z,2.50
2022-10-27T09:59:38.241Z,2.30
2022-10-27T10:02:31.877Z,2.58
2022-10-27T10:04:59.580Z,2.40
2022-10-27T10:07:37.342Z,2.05
2022-10-27T10:10:29.710Z,1.80
2022-10-27T10:13:02.806Z,2.20
2022-10-27T10:15:29.942Z,2.60
2022-10-27T10:17:58.204Z,2.53
2022-10-27T10:23:20.605Z,2.15
2022-10-27T10:25:47.561Z,2.20
2022-10-27T10:28:27.299Z,2.20
2022-10-27T10:30:54.218Z,2.30
2022-10-27T10:33:21.786Z,1.98
2022-10-27T10:35:49.205Z,1.90
2022-10-27T10:38:33.151Z,1.73
2022-10-27T10:41:03.946Z,1.70
2022-10-27T10:43:30.654Z,2.13
2022-10-27T10:45:58.176Z,1.90
2022-10-27T10:48:31.070Z,1.88
2022-10-27T10:50:58.114Z,2.03
2022-10-27T10:53:30.725Z,1.95
2022-10-27T10:56:00.926Z,2.20
2022-10-27T10:58:27.986Z,2.30
2022-10-27T11:00:56.794Z,2.38
2022-10-27T11:03:23.841Z,2.55
2022-10-27T11:06:01.855Z,2.60
2022-10-27T11:08:42.127Z,2.35
2022-10-27T11:11:20.152Z,2.28
2022-10-27T11:13:52.784Z,2.40
2022-10-27T11:16:19.283Z,2.60
2022-10-27T11:18:55.551Z,2.30
2022-10-27T11:21:32.693Z,2.55
2022-10-27T11:24:14.070Z,2.40
2022-10-27T11:26:49.731Z,2.30
2022-10-27T11:29:28.360Z,2.67
2022-10-27T11:32:16.340Z,2.90
2022-10-27T11:34:47.128Z,2.28
2022-10-27T11:37:53.622Z,2.17
2022-10-27T11:40:35.508Z,1.83
2022-10-27T11:43:06.296Z,1.83
2022-10-27T11:45:47.474Z,2.30
2022-10-27T11:48:23.885Z,1.73
2022-10-27T11:51:06.859Z,2.22
2022-10-27T11:53:37.575Z,2.00
2022-10-27T11:56:37.221Z,2.28
2022-10-27T11:59:23.205Z,2.13
2022-10-27T12:01:54.277Z,1.73
2022-10-27T12:04:26.876Z,2.10
2022-10-27T12:07:22.145Z,1.98
2022-10-27T12:10:10.165Z,1.87
2022-10-27T12:12:38.254Z,1.60
2022-10-27T12:15:11.311Z,1.48
2022-10-27T12:17:46.529Z,1.80
2022-10-27T12:20:23.229Z,1.40
2022-10-27T12:22:50.208Z,1.30
2022-10-27T12:25:24.735Z,1.35
2022-10-27T12:27:52.936Z,1.77
2022-10-27T12:30:21.207Z,1.63
2022-10-27T12:32:54.483Z,1.30
2022-10-27T12:35:35.076Z,1.63
2022-10-27T12:38:34.322Z,1.50
2022-10-27T12:41:16.187Z,1.10
2022-10-27T12:43:47.333Z,1.20
2022-10-27T12:46:54.902Z,1.40
2022-10-27T12:49:31.155Z,1.27
2022-10-27T12:52:17.794Z,1.52
2022-10-27T12:57:52.113Z,1.40
2022-10-27T13:00:20.872Z,1.30
2022-10-27T13:03:11.831Z,1.73
2022-10-27T13:05:48.394Z,1.33
2022-10-27T13:08:24.931Z,1.45
2022-10-27T13:11:06.706Z,1.38
2022-10-27T13:13:52.343Z,1.30
2022-10-27T13:19:25.665Z,1.30
2022-10-27T13:22:04.018Z,1.40
2022-10-27T13:24:38.149Z,1.10
2022-10-27T13:27:07.083Z,1.60
2022-10-27T13:29:53.161Z,1.13
2022-10-27T13:32:19.907Z,1.23
2022-10-27T13:35:01.769Z,1.65
2022-10-27T13:37:46.975Z,1.30
2022-10-27T13:40:19.765Z,1.52
2022-10-27T13:42:56.794Z,1.40
2022-10-27T13:45:36.073Z,1.40
2022-10-27T13:48:08.784Z,1.30
2022-10-27T13:50:40.050Z,1.48
2022-10-27T13:53:15.585Z,1.30
2022-10-27T13:55:42.973Z,1.60
2022-10-27T13:58:19.131Z,1.50
2022-10-27T14:01:01.236Z,1.45
2022-10-27T14:03:59.356Z,1.58
2022-10-27T14:06:33.936Z,1.30
2022-10-27T14:09:34.275Z,1.27
2022-10-27T14:12:27.945Z,1.25
2022-10-27T14:15:16.962Z,1.52
2022-10-27T14:17:43.873Z,1.30
2022-10-27T14:20:28.004Z,1.35
2022-10-27T14:23:06.513Z,1.20
2022-10-27T14:25:33.262Z,1.60
2022-10-27T14:28:08.754Z,1.25
2022-10-27T14:30:35.317Z,1.42
2022-10-27T14:33:18.066Z,1.25
2022-10-27T14:35:44.649Z,1.40
2022-10-27T14:38:18.521Z,1.55
2022-10-27T14:40:45.589Z,1.58
2022-10-27T14:43:19.031Z,1.13
2022-10-27T14:45:45.653Z,1.40
2022-10-27T14:48:31.885Z,1.40
2022-10-27T14:50:59.404Z,1.40
2022-10-27T14:53:33.291Z,1.10
2022-10-27T14:56:07.161Z,1.38
2022-10-27T14:58:33.697Z,1.50
2022-10-27T15:01:00.325Z,1.80
2022-10-27T15:03:33.641Z,1.58
2022-10-27T15:06:00.167Z,1.40
2022-10-27T15:08:32.110Z,1.60
2022-10-27T15:11:00.261Z,1.48
2022-10-27T15:13:27.115Z,1.50
2022-10-27T15:15:54.908Z,1.42
2022-10-27T15:18:22.666Z,1.20
2022-10-27T15:20:49.957Z,1.27
2022-10-27T15:23:16.903Z,1.17
2022-10-27T15:25:43.905Z,1.70
2022-10-27T15:28:10.799Z,1.60
2022-10-27T15:30:37.374Z,1.70
2022-10-27T15:33:26.096Z,1.60
2022-10-27T15:35:56.525Z,1.20
2022-10-27T15:38:27.853Z,1.88
2022-10-27T15:40:55.817Z,1.75
2022-10-27T15:43:24.364Z,1.58
2022-10-27T15:45:51.221Z,1.80
2022-10-27T15:48:23.808Z,1.70
2022-10-27T15:51:10.951Z,1.52
2022-10-27T15:53:53.760Z,1.30
2022-10-27T15:56:55.188Z,1.50
2022-10-27T15:59:25.579Z,1.42
2022-10-27T16:01:53.547Z,1.48
2022-10-27T16:04:31.171Z,1.17
2022-10-27T16:07:22.076Z,1.40
2022-10-27T16:09:49.279Z,1.27
2022-10-27T16:12:16.566Z,1.60
2022-10-27T16:14:48.553Z,1.40
2022-10-27T16:17:25.155Z,1.35
2022-10-27T16:19:51.873Z,1.60
2022-10-27T16:22:20.408Z,1.30
2022-10-27T16:24:50.283Z,1.80
2022-10-27T16:27:20.420Z,1.50
2022-10-27T16:29:48.529Z,1.40
2022-10-27T16:32:15.256Z,1.20
2022-10-27T16:34:41.939Z,1.30
2022-10-27T16:37:19.863Z,1.38
2022-10-27T16:39:46.445Z,1.40
2022-10-27T16:42:13.098Z,1.75
2022-10-27T16:44:39.803Z,1.38
2022-10-27T16:47:11.487Z,1.40
2022-10-27T16:49:41.175Z,1.20
2022-10-27T16:52:07.886Z,1.48
2022-10-27T16:54:38.552Z,1.38
2022-10-27T16:57:08.494Z,1.38
2022-10-27T16:59:35.187Z,1.27
2022-10-27T17:02:01.865Z,1.52
2022-10-27T17:04:30.604Z,1.33
2022-10-27T17:07:00.454Z,1.13
2022-10-27T17:09:29.255Z,1.38
2022-10-27T17:11:58.284Z,1.60
2022-10-27T17:14:25.161Z,1.33
2022-10-27T17:16:51.741Z,1.58
2022-10-27T17:19:18.868Z,1.40
2022-10-27T17:21:48.284Z,1.30
2022-10-27T17:24:14.887Z,1.17
2022-10-27T17:26:41.521Z,1.27
2022-10-27T17:29:08.219Z,1.33
2022-10-27T17:31:40.504Z,1.42
2022-10-27T17:34:10.208Z,1.45
2022-10-27T17:36:36.993Z,1.33
2022-10-27T17:39:04.070Z,1.63
2022-10-27T17:41:30.843Z,1.40
2022-10-27T17:43:57.600Z,1.40
2022-10-27T17:46:27.463Z,1.40
2022-10-27T17:48:57.800Z,1.25
2022-10-27T17:51:30.965Z,1.20
2022-10-27T17:54:01.524Z,1.33
2022-10-27T17:56:35.387Z,1.50
2022-10-27T17:59:02.091Z,1.30
2022-10-27T18:01:35.786Z,1.40
2022-10-27T18:04:12.087Z,1.20
2022-10-27T18:06:39.135Z,1.52
2022-10-27T18:09:05.966Z,1.38
2022-10-27T18:11:34.044Z,1.38
2022-10-27T18:14:03.831Z,1.40
2022-10-27T18:16:32.779Z,1.40
2022-10-27T18:19:04.161Z,1.42
2022-10-27T18:21:32.897Z,1.25
2022-10-27T18:24:00.148Z,1.30
2022-10-27T18:26:28.000Z,1.35
2022-10-27T18:28:54.650Z,1.40
2022-10-27T18:31:23.218Z,1.20
2022-10-27T18:33:50.198Z,1.48
2022-10-27T18:36:21.777Z,1.55
2022-10-27T18:38:55.131Z,1.67
2022-10-27T18:41:25.977Z,1.15
2022-10-27T18:43:54.321Z,1.60
2022-10-27T18:46:22.623Z,1.20
2022-10-27T18:48:51.523Z,1.10
2022-10-27T18:51:18.552Z,1.23
2022-10-27T18:53:45.799Z,1.17
2022-10-27T18:56:13.513Z,1.20
2022-10-27T18:58:40.193Z,1.20
2022-10-27T19:01:22.337Z,1.40
2022-10-27T19:03:56.079Z,1.50
2022-10-27T19:06:26.943Z,1.60
2022-10-27T19:08:54.667Z,1.40
2022-10-27T19:11:25.898Z,1.40
2022-10-27T19:13:53.771Z,1.20
2022-10-27T19:16:21.606Z,1.55
2022-10-27T19:18:48.364Z,1.45
2022-10-27T19:21:40.559Z,1.35
2022-10-27T19:24:19.430Z,1.60
2022-10-27T19:27:23.301Z,1.20
2022-10-27T19:29:50.309Z,1.35
2022-10-27T19:32:24.406Z,1.40
2022-10-27T19:34:59.863Z,1.30
2022-10-27T19:37:26.678Z,1.10
2022-10-27T19:39:53.588Z,0.93
2022-10-27T19:42:21.245Z,1.63
2022-10-27T19:45:03.232Z,1.55
2022-10-27T19:47:30.580Z,1.55
2022-10-27T19:49:57.574Z,1.30
2022-10-27T19:52:27.459Z,1.15
2022-10-27T19:54:54.107Z,1.30
2022-10-27T19:57:20.907Z,1.42
2022-10-27T19:59:50.216Z,1.20
2022-10-27T20:02:17.663Z,1.52
2022-10-27T20:04:45.033Z,1.35
2022-10-27T20:07:11.901Z,1.48
2022-10-27T20:09:38.996Z,1.73
2022-10-27T20:12:06.440Z,1.90
2022-10-27T20:14:33.807Z,1.63
2022-10-27T20:17:02.655Z,1.50
2022-10-27T20:19:30.719Z,1.40
2022-10-27T20:21:59.644Z,1.33
2022-10-27T20:24:28.954Z,1.77
2022-10-27T20:27:02.107Z,1.90
2022-10-27T20:29:35.201Z,2.10
2022-10-27T20:32:03.496Z,1.80
2022-10-27T20:34:38.593Z,1.63
2022-10-27T20:37:09.060Z,2.10
2022-10-27T20:39:36.229Z,1.70
2022-10-27T20:42:03.394Z,1.30
2022-10-27T20:44:30.202Z,1.40
2022-10-27T20:46:57.069Z,1.77
2022-10-27T20:49:23.891Z,1.70
2022-10-27T20:51:50.750Z,1.27
2022-10-27T20:54:17.538Z,1.80
2022-10-27T20:56:44.526Z,1.50
2022-10-27T20:59:11.590Z,1.80
2022-10-27T21:01:42.209Z,1.33
2022-10-27T21:04:11.835Z,1.27
2022-10-27T21:06:43.439Z,1.25
2022-10-27T21:09:12.184Z,1.40
2022-10-27T21:11:39.050Z,1.70
2022-10-27T21:14:05.978Z,1.90
2022-10-27T21:16:32.930Z,1.90
2022-10-27T21:19:00.938Z,1.20
2022-10-27T21:21:29.215Z,1.08
2022-10-27T21:23:57.627Z,1.20
2022-10-27T21:26:24.399Z,1.38
2022-10-27T21:28:55.182Z,1.30
2022-10-27T21:31:24.110Z,1.27
2022-10-27T21:33:51.054Z,1.25
2022-10-27T21:36:18.067Z,1.27
2022-10-27T21:38:46.056Z,1.35
2022-10-27T21:41:13.544Z,1.10
2022-10-27T21:43:41.818Z,1.40
2022-10-27T21:46:08.601Z,1.40
2022-10-27T21:48:36.339Z,1.38
2022-10-27T21:51:03.032Z,1.73
2022-10-27T21:53:29.783Z,1.65
2022-10-27T21:56:06.905Z,1.60
2022-10-27T21:58:34.205Z,1.52
2022-10-27T22:01:14.878Z,1.50
2022-10-27T22:03:42.319Z,1.33
2022-10-27T22:06:17.430Z,1.35
2022-10-27T22:08:46.915Z,1.55
2022-10-27T22:11:15.751Z,1.33
2022-10-27T22:13:42.603Z,1.40
2022-10-27T22:16:10.961Z,1.45
2022-10-27T22:18:37.723Z,1.70
2022-10-27T22:21:04.985Z,1.60
2022-10-27T22:23:32.342Z,1.58
2022-10-27T22:26:06.789Z,1.67
2022-10-27T22:28:33.539Z,1.30
2022-10-27T22:31:07.486Z,1.50
2022-10-27T22:33:34.289Z,1.05
2022-10-27T22:36:05.100Z,1.08
2022-10-27T22:38:31.891Z,1.10
2022-10-27T22:41:02.764Z,1.25
2022-10-27T22:43:30.095Z,1.65
2022-10-27T22:45:57.124Z,1.58
2022-10-27T22:48:23.867Z,1.45
2022-10-27T22:50:50.836Z,1.52
2022-10-27T22:53:17.507Z,1.60
2022-10-27T22:55:44.218Z,1.50
2022-10-27T22:58:10.982Z,1.25
2022-10-27T23:00:37.659Z,1.70
2022-10-27T23:03:05.222Z,1.67
2022-10-27T23:05:32.002Z,1.65
2022-10-27T23:07:58.742Z,1.60
2022-10-27T23:10:25.515Z,1.70
2022-10-27T23:12:52.562Z,1.45
2022-10-27T23:15:19.607Z,1.42
2022-10-27T23:17:46.478Z,1.30
2022-10-27T23:20:13.374Z,1.52
2022-10-27T23:22:40.460Z,1.50
2022-10-27T23:25:07.579Z,1.40
2022-10-27T23:27:34.523Z,1.40
2022-10-27T23:30:01.317Z,1.60
2022-10-27T23:32:28.466Z,1.50
2022-10-27T23:34:55.182Z,1.30
2022-10-27T23:37:22.019Z,1.60
2022-10-27T23:39:48.825Z,1.30
2022-10-27T23:42:15.583Z,1.63
2022-10-27T23:44:42.272Z,1.60
2022-10-27T23:47:09.066Z,2.00
2022-10-27T23:49:35.924Z,1.73
2022-10-27T23:52:05.906Z,1.80
2022-10-27T23:54:33.787Z,1.75
2022-10-27T23:57:00.676Z,1.45
2022-10-27T23:59:27.367Z,1.45
